sensor_id;sensor_type;location;lat;lon;timestamp;temperature;humidity
7030;DHT22;3556;53.500;10.176;2022-11-20T00:00:09;1.30;99.90
7030;DHT22;3556;53.500;10.176;2022-11-20T00:02:35;1.30;99.90
7030;DHT22;3556;53.500;10.176;2022-11-20T00:05:01;1.20;99.90
7030;DHT22;3556;53.500;10.176;2022-11-20T00:07:26;1.20;99.90
7030;DHT22;3556;53.500;10.176;2022-11-20T00:09:52;1.20;99.90
7030;DHT22;3556;53.500;10.176;2022-11-20T00:12:17;1.20;99.90
7030;DHT22;3556;53.500;10.176;2022-11-20T00:14:43;1.20;99.90
7030;DHT22;3556;53.500;10.176;2022-11-20T00:17:08;1.20;99.90
7030;DHT22;3556;53.500;10.176;2022-11-20T00:19:34;1.10;99.90
7030;DHT22;3556;53.500;10.176;2022-11-20T00:22:00;1.10;99.90
7030;DHT22;3556;53.500;10.176;2022-11-20T00:24:25;1.10;99.90
7030;DHT22;3556;53.500;10.176;2022-11-20T00:26:51;1.10;99.90
7030;DHT22;3556;53.500;10.176;2022-11-20T00:29:16;1.10;99.90
7030;DHT22;3556;53.500;10.176;2022-11-20T00:31:42;1.10;99.90
7030;DHT22;3556;53.500;10.176;2022-11-20T00:34:09;1.10;99.90
7030;DHT22;3556;53.500;10.176;2022-11-20T00:36:35;1.10;99.90
7030;DHT22;3556;53.500;10.176;2022-11-20T00:39:00;1.10;99.90
7030;DHT22;3556;53.500;10.176;2022-11-20T00:41:27;1.10;99.90
7030;DHT22;3556;53.500;10.176;2022-11-20T00:43:54;1.10;99.90
7030;DHT22;3556;53.500;10.176;2022-11-20T00:46:22;1.10;99.90
7030;DHT22;3556;53.500;10.176;2022-11-20T00:48:49;1.10;99.90
7030;DHT22;3556;53.500;10.176;2022-11-20T00:51:16;1.00;99.90
7030;DHT22;3556;53.500;10.176;2022-11-20T00:53:42;1.10;99.90
7030;DHT22;3556;53.500;10.176;2022-11-20T00:56:13;1.00;99.90
7030;DHT22;3556;53.500;10.176;2022-11-20T00:58:41;1.00;99.90
7030;DHT22;3556;53.500;10.176;2022-11-20T01:01:08;1.10;99.90
7030;DHT22;3556;53.500;10.176;2022-11-20T01:03:37;1.00;99.90
7030;DHT22;3556;53.500;10.176;2022-11-20T01:06:05;1.00;99.90
7030;DHT22;3556;53.500;10.176;2022-11-20T01:08:33;1.00;99.90
7030;DHT22;3556;53.500;10.176;2022-11-20T01:11:11;1.00;99.90
7030;DHT22;3556;53.500;10.176;2022-11-20T01:13:37;1.00;99.90
7030;DHT22;3556;53.500;10.176;2022-11-20T01:16:17;1.00;99.90
7030;DHT22;3556;53.500;10.176;2022-11-20T01:18:46;1.00;99.90
7030;DHT22;3556;53.500;10.176;2022-11-20T01:21:20;1.00;99.90
7030;DHT22;3556;53.500;10.176;2022-11-20T01:23:47;1.00;99.90
7030;DHT22;3556;53.500;10.176;2022-11-20T01:26:16;1.00;99.90
7030;DHT22;3556;53.500;10.176;2022-11-20T01:28:42;1.00;99.90
7030;DHT22;3556;53.500;10.176;2022-11-20T01:31:20;1.00;99.90
7030;DHT22;3556;53.500;10.176;2022-11-20T01:33:46;1.00;99.90
7030;DHT22;3556;53.500;10.176;2022-11-20T01:36:13;1.00;99.90
7030;DHT22;3556;53.500;10.176;2022-11-20T01:38:39;1.00;99.90
7030;DHT22;3556;53.500;10.176;2022-11-20T01:41:05;1.00;99.90
7030;DHT22;3556;53.500;10.176;2022-11-20T01:43:32;1.00;99.90
7030;DHT22;3556;53.500;10.176;2022-11-20T01:46:17;1.00;99.90
7030;DHT22;3556;53.500;10.176;2022-11-20T01:49:20;1.00;99.90
7030;DHT22;3556;53.500;10.176;2022-11-20T01:51:50;1.00;99.90
7030;DHT22;3556;53.500;10.176;2022-11-20T01:54:35;1.00;99.90
7030;DHT22;3556;53.500;10.176;2022-11-20T01:57:01;1.10;99.90
7030;DHT22;3556;53.500;10.176;2022-11-20T01:59:29;1.10;99.90
7030;DHT22;3556;53.500;10.176;2022-11-20T02:01:55;1.10;99.90
7030;DHT22;3556;53.500;10.176;2022-11-20T02:04:21;1.10;99.90
7030;DHT22;3556;53.500;10.176;2022-11-20T02:07:14;1.10;99.90
7030;DHT22;3556;53.500;10.176;2022-11-20T02:09:40;1.10;99.90
7030;DHT22;3556;53.500;10.176;2022-11-20T02:12:06;1.10;99.90
7030;DHT22;3556;53.500;10.176;2022-11-20T02:14:52;1.10;99.90
7030;DHT22;3556;53.500;10.176;2022-11-20T02:17:17;1.10;99.90
7030;DHT22;3556;53.500;10.176;2022-11-20T02:19:43;1.10;99.90
7030;DHT22;3556;53.500;10.176;2022-11-20T02:22:18;1.20;99.90
7030;DHT22;3556;53.500;10.176;2022-11-20T02:24:47;1.20;99.90
7030;DHT22;3556;53.500;10.176;2022-11-20T02:27:15;1.20;99.90
7030;DHT22;3556;53.500;10.176;2022-11-20T02:32:27;1.30;99.90
7030;DHT22;3556;53.500;10.176;2022-11-20T02:34:54;1.30;99.90
7030;DHT22;3556;53.500;10.176;2022-11-20T02:37:20;1.30;99.90
7030;DHT22;3556;53.500;10.176;2022-11-20T02:39:48;1.30;99.90
7030;DHT22;3556;53.500;10.176;2022-11-20T02:42:14;1.30;99.90
7030;DHT22;3556;53.500;10.176;2022-11-20T02:44:40;1.40;99.90
7030;DHT22;3556;53.500;10.176;2022-11-20T02:47:06;1.40;99.90
7030;DHT22;3556;53.500;10.176;2022-11-20T02:49:32;1.40;99.90
7030;DHT22;3556;53.500;10.176;2022-11-20T02:51:58;1.40;99.90
7030;DHT22;3556;53.500;10.176;2022-11-20T02:54:24;1.40;99.90
7030;DHT22;3556;53.500;10.176;2022-11-20T02:56:51;1.40;99.90
7030;DHT22;3556;53.500;10.176;2022-11-20T02:59:16;1.40;99.90
7030;DHT22;3556;53.500;10.176;2022-11-20T03:01:42;1.50;99.90
7030;DHT22;3556;53.500;10.176;2022-11-20T03:04:08;1.50;99.90
7030;DHT22;3556;53.500;10.176;2022-11-20T03:06:34;1.50;99.90
7030;DHT22;3556;53.500;10.176;2022-11-20T03:09:00;1.50;99.90
7030;DHT22;3556;53.500;10.176;2022-11-20T03:11:26;1.50;99.90
7030;DHT22;3556;53.500;10.176;2022-11-20T03:13:51;1.50;99.90
7030;DHT22;3556;53.500;10.176;2022-11-20T03:16:20;1.50;99.90
7030;DHT22;3556;53.500;10.176;2022-11-20T03:18:46;1.50;99.90
7030;DHT22;3556;53.500;10.176;2022-11-20T03:21:13;1.50;99.90
7030;DHT22;3556;53.500;10.176;2022-11-20T03:23:39;1.50;99.90
7030;DHT22;3556;53.500;10.176;2022-11-20T03:26:18;1.50;99.90
7030;DHT22;3556;53.500;10.176;2022-11-20T03:29:03;1.50;99.90
7030;DHT22;3556;53.500;10.176;2022-11-20T03:31:35;1.50;99.90
7030;DHT22;3556;53.500;10.176;2022-11-20T03:34:02;1.50;99.90
7030;DHT22;3556;53.500;10.176;2022-11-20T03:36:28;1.50;99.90
7030;DHT22;3556;53.500;10.176;2022-11-20T03:38:54;1.50;99.90
7030;DHT22;3556;53.500;10.176;2022-11-20T03:41:26;1.50;99.90
7030;DHT22;3556;53.500;10.176;2022-11-20T03:43:54;1.50;99.90
7030;DHT22;3556;53.500;10.176;2022-11-20T03:46:20;1.50;99.90
7030;DHT22;3556;53.500;10.176;2022-11-20T03:48:47;1.50;99.90
7030;DHT22;3556;53.500;10.176;2022-11-20T03:51:18;1.50;99.90
7030;DHT22;3556;53.500;10.176;2022-11-20T03:53:46;1.50;99.90
7030;DHT22;3556;53.500;10.176;2022-11-20T03:56:13;1.50;99.90
7030;DHT22;3556;53.500;10.176;2022-11-20T03:58:40;1.60;99.90
7030;DHT22;3556;53.500;10.176;2022-11-20T04:03:37;1.50;99.90
7030;DHT22;3556;53.500;10.176;2022-11-20T04:06:11;1.60;99.90
7030;DHT22;3556;53.500;10.176;2022-11-20T04:08:37;1.50;99.90
7030;DHT22;3556;53.500;10.176;2022-11-20T04:11:16;1.50;99.90
7030;DHT22;3556;53.500;10.176;2022-11-20T04:13:46;1.50;99.90
7030;DHT22;3556;53.500;10.176;2022-11-20T04:16:12;1.50;99.90
7030;DHT22;3556;53.500;10.176;2022-11-20T04:18:37;1.50;99.90
7030;DHT22;3556;53.500;10.176;2022-11-20T04:21:04;1.50;99.90
7030;DHT22;3556;53.500;10.176;2022-11-20T04:23:30;1.50;99.90
7030;DHT22;3556;53.500;10.176;2022-11-20T04:26:07;1.50;99.90
7030;DHT22;3556;53.500;10.176;2022-11-20T04:28:33;1.50;99.90
7030;DHT22;3556;53.500;10.176;2022-11-20T04:31:11;1.50;99.90
7030;DHT22;3556;53.500;10.176;2022-11-20T04:33:38;1.50;99.90
7030;DHT22;3556;53.500;10.176;2022-11-20T04:36:06;1.40;99.90
7030;DHT22;3556;53.500;10.176;2022-11-20T04:38:32;1.40;99.90
7030;DHT22;3556;53.500;10.176;2022-11-20T04:40:59;1.40;99.90
7030;DHT22;3556;53.500;10.176;2022-11-20T04:43:26;1.40;99.90
7030;DHT22;3556;53.500;10.176;2022-11-20T04:45:53;1.40;99.90
7030;DHT22;3556;53.500;10.176;2022-11-20T04:48:19;1.40;99.90
7030;DHT22;3556;53.500;10.176;2022-11-20T04:50:44;1.40;99.90
7030;DHT22;3556;53.500;10.176;2022-11-20T04:53:10;1.40;99.90
7030;DHT22;3556;53.500;10.176;2022-11-20T04:55:36;1.40;99.90
7030;DHT22;3556;53.500;10.176;2022-11-20T04:58:01;1.40;99.90
7030;DHT22;3556;53.500;10.176;2022-11-20T05:00:27;1.40;99.90
7030;DHT22;3556;53.500;10.176;2022-11-20T05:02:53;1.50;99.90
7030;DHT22;3556;53.500;10.176;2022-11-20T05:05:18;1.50;99.90
7030;DHT22;3556;53.500;10.176;2022-11-20T05:07:44;1.50;99.90
7030;DHT22;3556;53.500;10.176;2022-11-20T05:10:09;1.50;99.90
7030;DHT22;3556;53.500;10.176;2022-11-20T05:12:35;1.50;99.90
7030;DHT22;3556;53.500;10.176;2022-11-20T05:15:01;1.50;99.90
7030;DHT22;3556;53.500;10.176;2022-11-20T05:17:26;1.40;99.90
7030;DHT22;3556;53.500;10.176;2022-11-20T05:19:52;1.50;99.90
7030;DHT22;3556;53.500;10.176;2022-11-20T05:22:17;1.40;99.90
7030;DHT22;3556;53.500;10.176;2022-11-20T05:24:43;1.40;99.90
7030;DHT22;3556;53.500;10.176;2022-11-20T05:27:09;1.40;99.90
7030;DHT22;3556;53.500;10.176;2022-11-20T05:29:34;1.40;99.90
7030;DHT22;3556;53.500;10.176;2022-11-20T05:32:00;1.30;99.90
7030;DHT22;3556;53.500;10.176;2022-11-20T05:34:25;1.30;99.90
7030;DHT22;3556;53.500;10.176;2022-11-20T05:36:51;1.30;99.90
7030;DHT22;3556;53.500;10.176;2022-11-20T05:39:17;1.30;99.90
7030;DHT22;3556;53.500;10.176;2022-11-20T05:41:42;1.30;99.90
7030;DHT22;3556;53.500;10.176;2022-11-20T05:44:10;1.20;99.90
7030;DHT22;3556;53.500;10.176;2022-11-20T05:46:36;1.20;99.90
7030;DHT22;3556;53.500;10.176;2022-11-20T05:49:02;1.20;99.90
7030;DHT22;3556;53.500;10.176;2022-11-20T05:51:28;1.30;99.90
7030;DHT22;3556;53.500;10.176;2022-11-20T05:53:55;1.20;99.90
7030;DHT22;3556;53.500;10.176;2022-11-20T05:56:22;1.20;99.90
7030;DHT22;3556;53.500;10.176;2022-11-20T05:58:48;1.20;99.90
7030;DHT22;3556;53.500;10.176;2022-11-20T06:01:18;1.20;99.90
7030;DHT22;3556;53.500;10.176;2022-11-20T06:03:45;1.20;99.90
7030;DHT22;3556;53.500;10.176;2022-11-20T06:06:16;1.10;99.90
7030;DHT22;3556;53.500;10.176;2022-11-20T06:08:43;1.10;99.90
7030;DHT22;3556;53.500;10.176;2022-11-20T06:11:10;1.10;99.90
7030;DHT22;3556;53.500;10.176;2022-11-20T06:13:36;1.10;99.90
7030;DHT22;3556;53.500;10.176;2022-11-20T06:16:03;1.00;99.90
7030;DHT22;3556;53.500;10.176;2022-11-20T06:18:29;1.00;99.90
7030;DHT22;3556;53.500;10.176;2022-11-20T06:21:03;1.00;99.90
7030;DHT22;3556;53.500;10.176;2022-11-20T06:23:30;1.00;99.90
7030;DHT22;3556;53.500;10.176;2022-11-20T06:25:57;1.00;99.90
7030;DHT22;3556;53.500;10.176;2022-11-20T06:28:22;1.00;99.90
7030;DHT22;3556;53.500;10.176;2022-11-20T06:30:48;0.90;99.90
7030;DHT22;3556;53.500;10.176;2022-11-20T06:33:14;0.90;99.90
7030;DHT22;3556;53.500;10.176;2022-11-20T06:35:39;0.90;99.90
7030;DHT22;3556;53.500;10.176;2022-11-20T06:38:05;0.90;99.90
7030;DHT22;3556;53.500;10.176;2022-11-20T06:40:30;0.90;99.90
7030;DHT22;3556;53.500;10.176;2022-11-20T06:42:56;0.90;99.90
7030;DHT22;3556;53.500;10.176;2022-11-20T06:45:22;0.80;99.90
7030;DHT22;3556;53.500;10.176;2022-11-20T06:47:47;0.80;99.90
7030;DHT22;3556;53.500;10.176;2022-11-20T06:50:13;0.80;99.90
7030;DHT22;3556;53.500;10.176;2022-11-20T06:52:39;0.80;99.90
7030;DHT22;3556;53.500;10.176;2022-11-20T06:55:05;0.80;99.90
7030;DHT22;3556;53.500;10.176;2022-11-20T06:57:30;0.80;99.90
7030;DHT22;3556;53.500;10.176;2022-11-20T06:59:56;0.80;99.90
7030;DHT22;3556;53.500;10.176;2022-11-20T07:02:22;0.80;99.90
7030;DHT22;3556;53.500;10.176;2022-11-20T07:04:53;0.80;99.90
7030;DHT22;3556;53.500;10.176;2022-11-20T07:07:19;0.80;99.90
7030;DHT22;3556;53.500;10.176;2022-11-20T07:09:44;0.80;99.90
7030;DHT22;3556;53.500;10.176;2022-11-20T07:12:10;0.80;99.90
7030;DHT22;3556;53.500;10.176;2022-11-20T07:14:35;0.90;99.90
7030;DHT22;3556;53.500;10.176;2022-11-20T07:17:01;0.90;99.90
7030;DHT22;3556;53.500;10.176;2022-11-20T07:19:27;0.90;99.90
7030;DHT22;3556;53.500;10.176;2022-11-20T07:21:52;0.90;99.90
7030;DHT22;3556;53.500;10.176;2022-11-20T07:24:18;1.00;99.90
7030;DHT22;3556;53.500;10.176;2022-11-20T07:26:46;1.00;99.90
7030;DHT22;3556;53.500;10.176;2022-11-20T07:29:12;1.00;99.90
7030;DHT22;3556;53.500;10.176;2022-11-20T07:31:38;1.00;99.90
7030;DHT22;3556;53.500;10.176;2022-11-20T07:34:03;1.00;99.90
7030;DHT22;3556;53.500;10.176;2022-11-20T07:36:29;1.10;99.90
7030;DHT22;3556;53.500;10.176;2022-11-20T07:38:55;1.10;99.90
7030;DHT22;3556;53.500;10.176;2022-11-20T07:41:20;1.10;99.90
7030;DHT22;3556;53.500;10.176;2022-11-20T07:43:46;1.10;99.90
7030;DHT22;3556;53.500;10.176;2022-11-20T07:46:11;1.10;99.90
7030;DHT22;3556;53.500;10.176;2022-11-20T07:48:37;1.20;99.90
7030;DHT22;3556;53.500;10.176;2022-11-20T07:51:03;1.20;99.90
7030;DHT22;3556;53.500;10.176;2022-11-20T07:53:28;1.30;99.90
7030;DHT22;3556;53.500;10.176;2022-11-20T07:55:54;1.30;99.90
7030;DHT22;3556;53.500;10.176;2022-11-20T07:58:20;1.30;99.90
7030;DHT22;3556;53.500;10.176;2022-11-20T08:00:46;1.40;99.90
7030;DHT22;3556;53.500;10.176;2022-11-20T08:03:12;1.40;99.90
7030;DHT22;3556;53.500;10.176;2022-11-20T08:05:38;1.40;99.90
7030;DHT22;3556;53.500;10.176;2022-11-20T08:08:04;1.40;99.90
7030;DHT22;3556;53.500;10.176;2022-11-20T08:10:29;1.40;99.90
7030;DHT22;3556;53.500;10.176;2022-11-20T08:12:55;1.50;99.90
7030;DHT22;3556;53.500;10.176;2022-11-20T08:15:39;1.50;99.90
7030;DHT22;3556;53.500;10.176;2022-11-20T08:18:10;1.50;99.90
7030;DHT22;3556;53.500;10.176;2022-11-20T08:20:37;1.50;99.90
7030;DHT22;3556;53.500;10.176;2022-11-20T08:23:05;1.50;99.90
7030;DHT22;3556;53.500;10.176;2022-11-20T08:25:31;1.50;99.90
7030;DHT22;3556;53.500;10.176;2022-11-20T08:28:02;1.60;99.90
7030;DHT22;3556;53.500;10.176;2022-11-20T08:30:28;1.60;99.90
7030;DHT22;3556;53.500;10.176;2022-11-20T08:32:54;1.70;99.90
7030;DHT22;3556;53.500;10.176;2022-11-20T08:35:21;1.70;99.90
7030;DHT22;3556;53.500;10.176;2022-11-20T08:37:47;1.70;99.90
7030;DHT22;3556;53.500;10.176;2022-11-20T08:40:13;1.80;99.90
7030;DHT22;3556;53.500;10.176;2022-11-20T08:42:49;1.80;99.90
7030;DHT22;3556;53.500;10.176;2022-11-20T08:45:16;1.80;99.90
7030;DHT22;3556;53.500;10.176;2022-11-20T08:47:43;1.80;99.90
7030;DHT22;3556;53.500;10.176;2022-11-20T08:50:10;1.80;99.90
7030;DHT22;3556;53.500;10.176;2022-11-20T08:52:37;1.80;99.90
7030;DHT22;3556;53.500;10.176;2022-11-20T08:55:03;1.80;99.90
7030;DHT22;3556;53.500;10.176;2022-11-20T08:57:32;1.80;99.90
7030;DHT22;3556;53.500;10.176;2022-11-20T08:59:58;1.90;99.90
7030;DHT22;3556;53.500;10.176;2022-11-20T09:02:23;1.90;99.90
7030;DHT22;3556;53.500;10.176;2022-11-20T09:04:49;2.00;99.90
7030;DHT22;3556;53.500;10.176;2022-11-20T09:07:14;2.00;99.90
7030;DHT22;3556;53.500;10.176;2022-11-20T09:09:40;2.10;99.90
7030;DHT22;3556;53.500;10.176;2022-11-20T09:12:05;2.10;99.90
7030;DHT22;3556;53.500;10.176;2022-11-20T09:14:31;2.10;99.90
7030;DHT22;3556;53.500;10.176;2022-11-20T09:16:57;2.10;99.90
7030;DHT22;3556;53.500;10.176;2022-11-20T09:19:24;2.20;99.90
7030;DHT22;3556;53.500;10.176;2022-11-20T09:21:50;2.30;99.90
7030;DHT22;3556;53.500;10.176;2022-11-20T09:24:15;2.30;99.90
7030;DHT22;3556;53.500;10.176;2022-11-20T09:26:41;2.40;99.90
7030;DHT22;3556;53.500;10.176;2022-11-20T09:29:07;2.40;99.90
7030;DHT22;3556;53.500;10.176;2022-11-20T09:31:32;2.40;99.90
7030;DHT22;3556;53.500;10.176;2022-11-20T09:33:58;2.30;99.90
7030;DHT22;3556;53.500;10.176;2022-11-20T09:36:24;2.30;99.90
7030;DHT22;3556;53.500;10.176;2022-11-20T09:38:49;2.30;99.90
7030;DHT22;3556;53.500;10.176;2022-11-20T09:47:02;2.50;99.90
7030;DHT22;3556;53.500;10.176;2022-11-20T09:49:36;2.50;99.90
7030;DHT22;3556;53.500;10.176;2022-11-20T09:54:43;2.50;99.90
7030;DHT22;3556;53.500;10.176;2022-11-20T09:57:19;2.50;99.90
7030;DHT22;3556;53.500;10.176;2022-11-20T10:05:17;2.60;99.90
7030;DHT22;3556;53.500;10.176;2022-11-20T10:10:46;2.30;99.90
7030;DHT22;3556;53.500;10.176;2022-11-20T10:19:34;2.10;99.90
7030;DHT22;3556;53.500;10.176;2022-11-20T10:25:16;2.20;99.90
7030;DHT22;3556;53.500;10.176;2022-11-20T10:30:43;2.20;99.90
7030;DHT22;3556;53.500;10.176;2022-11-20T10:35:52;2.30;99.90
7030;DHT22;3556;53.500;10.176;2022-11-20T10:38:24;2.40;99.90
7030;DHT22;3556;53.500;10.176;2022-11-20T10:40:59;2.50;99.90
7030;DHT22;3556;53.500;10.176;2022-11-20T10:43:46;2.60;99.90
7030;DHT22;3556;53.500;10.176;2022-11-20T10:46:17;2.80;99.90
7030;DHT22;3556;53.500;10.176;2022-11-20T10:48:44;2.70;99.90
7030;DHT22;3556;53.500;10.176;2022-11-20T10:54:10;2.80;99.90
7030;DHT22;3556;53.500;10.176;2022-11-20T10:56:45;2.70;99.90
7030;DHT22;3556;53.500;10.176;2022-11-20T11:01:59;2.70;99.90
7030;DHT22;3556;53.500;10.176;2022-11-20T11:04:38;2.70;99.90
7030;DHT22;3556;53.500;10.176;2022-11-20T11:09:48;2.70;99.90
7030;DHT22;3556;53.500;10.176;2022-11-20T11:12:14;2.80;99.90
7030;DHT22;3556;53.500;10.176;2022-11-20T11:14:51;2.90;99.90
7030;DHT22;3556;53.500;10.176;2022-11-20T11:17:29;3.00;99.90
7030;DHT22;3556;53.500;10.176;2022-11-20T11:19:59;3.00;99.90
7030;DHT22;3556;53.500;10.176;2022-11-20T11:22:28;3.00;99.90
7030;DHT22;3556;53.500;10.176;2022-11-20T11:24:54;3.00;99.90
7030;DHT22;3556;53.500;10.176;2022-11-20T11:27:20;2.90;99.90
7030;DHT22;3556;53.500;10.176;2022-11-20T11:29:46;2.90;99.90
7030;DHT22;3556;53.500;10.176;2022-11-20T11:32:16;2.90;99.90
7030;DHT22;3556;53.500;10.176;2022-11-20T11:34:42;2.90;99.90
7030;DHT22;3556;53.500;10.176;2022-11-20T11:37:21;2.90;99.90
7030;DHT22;3556;53.500;10.176;2022-11-20T11:39:47;3.00;99.90
7030;DHT22;3556;53.500;10.176;2022-11-20T11:42:17;3.00;99.90
7030;DHT22;3556;53.500;10.176;2022-11-20T11:44:45;3.00;99.90
7030;DHT22;3556;53.500;10.176;2022-11-20T11:47:46;2.90;99.90
7030;DHT22;3556;53.500;10.176;2022-11-20T11:52:54;2.90;99.90
7030;DHT22;3556;53.500;10.176;2022-11-20T11:58:17;2.80;99.90
7030;DHT22;3556;53.500;10.176;2022-11-20T12:00:54;2.80;99.90
7030;DHT22;3556;53.500;10.176;2022-11-20T12:03:30;2.80;99.90
7030;DHT22;3556;53.500;10.176;2022-11-20T12:06:11;2.80;99.90
7030;DHT22;3556;53.500;10.176;2022-11-20T12:08:53;2.80;99.90
7030;DHT22;3556;53.500;10.176;2022-11-20T12:11:39;2.90;99.90
7030;DHT22;3556;53.500;10.176;2022-11-20T12:14:22;2.90;99.90
7030;DHT22;3556;53.500;10.176;2022-11-20T12:16:52;2.90;99.90
7030;DHT22;3556;53.500;10.176;2022-11-20T12:19:19;2.90;99.90
7030;DHT22;3556;53.500;10.176;2022-11-20T12:24:40;3.00;99.90
7030;DHT22;3556;53.500;10.176;2022-11-20T12:30:04;3.00;99.90
7030;DHT22;3556;53.500;10.176;2022-11-20T12:43:24;2.90;99.90
7030;DHT22;3556;53.500;10.176;2022-11-20T12:48:39;2.90;99.90
7030;DHT22;3556;53.500;10.176;2022-11-20T12:56:53;3.00;99.90
7030;DHT22;3556;53.500;10.176;2022-11-20T13:07:19;3.00;99.90
7030;DHT22;3556;53.500;10.176;2022-11-20T13:09:49;3.00;99.90
7030;DHT22;3556;53.500;10.176;2022-11-20T13:12:45;2.90;99.90
7030;DHT22;3556;53.500;10.176;2022-11-20T13:15:32;2.90;99.90
7030;DHT22;3556;53.500;10.176;2022-11-20T13:18:01;2.90;99.90
7030;DHT22;3556;53.500;10.176;2022-11-20T13:20:27;2.90;99.90
7030;DHT22;3556;53.500;10.176;2022-11-20T13:22:56;2.90;99.90
7030;DHT22;3556;53.500;10.176;2022-11-20T13:25:26;2.90;99.90
7030;DHT22;3556;53.500;10.176;2022-11-20T13:27:53;2.80;99.90
7030;DHT22;3556;53.500;10.176;2022-11-20T13:30:24;2.80;99.90
7030;DHT22;3556;53.500;10.176;2022-11-20T13:32:53;2.80;99.90
7030;DHT22;3556;53.500;10.176;2022-11-20T13:35:34;2.80;99.90
7030;DHT22;3556;53.500;10.176;2022-11-20T13:38:07;2.90;99.90
7030;DHT22;3556;53.500;10.176;2022-11-20T13:40:34;3.00;99.90
7030;DHT22;3556;53.500;10.176;2022-11-20T13:43:10;3.20;99.90
7030;DHT22;3556;53.500;10.176;2022-11-20T13:45:36;3.50;99.90
7030;DHT22;3556;53.500;10.176;2022-11-20T13:48:04;3.70;99.90
7030;DHT22;3556;53.500;10.176;2022-11-20T13:55:54;3.70;99.90
7030;DHT22;3556;53.500;10.176;2022-11-20T14:01:23;3.60;99.90
7030;DHT22;3556;53.500;10.176;2022-11-20T14:03:50;3.40;99.90
7030;DHT22;3556;53.500;10.176;2022-11-20T14:06:30;3.40;99.90
7030;DHT22;3556;53.500;10.176;2022-11-20T14:08:57;3.50;99.90
7030;DHT22;3556;53.500;10.176;2022-11-20T14:11:28;3.50;99.90
7030;DHT22;3556;53.500;10.176;2022-11-20T14:16:24;3.40;99.90
7030;DHT22;3556;53.500;10.176;2022-11-20T14:18:50;3.30;99.90
7030;DHT22;3556;53.500;10.176;2022-11-20T14:21:27;3.30;99.90
7030;DHT22;3556;53.500;10.176;2022-11-20T14:24:02;3.30;99.90
7030;DHT22;3556;53.500;10.176;2022-11-20T14:26:29;3.20;99.90
7030;DHT22;3556;53.500;10.176;2022-11-20T14:28:54;3.10;99.90
7030;DHT22;3556;53.500;10.176;2022-11-20T14:31:25;3.10;99.90
7030;DHT22;3556;53.500;10.176;2022-11-20T14:33:55;3.10;99.90
7030;DHT22;3556;53.500;10.176;2022-11-20T14:36:24;3.00;99.90
7030;DHT22;3556;53.500;10.176;2022-11-20T14:38:51;3.00;99.90
7030;DHT22;3556;53.500;10.176;2022-11-20T14:41:22;2.90;99.90
7030;DHT22;3556;53.500;10.176;2022-11-20T14:43:57;2.80;99.90
7030;DHT22;3556;53.500;10.176;2022-11-20T14:46:24;2.80;99.90
7030;DHT22;3556;53.500;10.176;2022-11-20T14:48:53;2.80;99.90
7030;DHT22;3556;53.500;10.176;2022-11-20T14:51:32;2.80;99.90
7030;DHT22;3556;53.500;10.176;2022-11-20T14:54:09;2.80;99.90
7030;DHT22;3556;53.500;10.176;2022-11-20T14:56:35;2.80;99.90
7030;DHT22;3556;53.500;10.176;2022-11-20T14:59:00;2.80;99.90
7030;DHT22;3556;53.500;10.176;2022-11-20T15:01:31;2.80;99.90
7030;DHT22;3556;53.500;10.176;2022-11-20T15:04:10;2.80;99.90
7030;DHT22;3556;53.500;10.176;2022-11-20T15:06:36;2.70;99.90
7030;DHT22;3556;53.500;10.176;2022-11-20T15:09:12;2.70;99.90
7030;DHT22;3556;53.500;10.176;2022-11-20T15:11:38;2.70;99.90
7030;DHT22;3556;53.500;10.176;2022-11-20T15:14:09;2.70;99.90
7030;DHT22;3556;53.500;10.176;2022-11-20T15:16:35;2.60;99.90
7030;DHT22;3556;53.500;10.176;2022-11-20T15:19:02;2.60;99.90
7030;DHT22;3556;53.500;10.176;2022-11-20T15:21:28;2.60;99.90
7030;DHT22;3556;53.500;10.176;2022-11-20T15:23:54;2.60;99.90
7030;DHT22;3556;53.500;10.176;2022-11-20T15:26:29;2.60;99.90
7030;DHT22;3556;53.500;10.176;2022-11-20T15:28:55;2.50;99.90
7030;DHT22;3556;53.500;10.176;2022-11-20T15:31:22;2.50;99.90
7030;DHT22;3556;53.500;10.176;2022-11-20T15:33:48;2.50;99.90
7030;DHT22;3556;53.500;10.176;2022-11-20T15:36:14;2.50;99.90
7030;DHT22;3556;53.500;10.176;2022-11-20T15:38:40;2.50;99.90
7030;DHT22;3556;53.500;10.176;2022-11-20T15:41:06;2.40;99.90
7030;DHT22;3556;53.500;10.176;2022-11-20T15:43:32;2.40;99.90
7030;DHT22;3556;53.500;10.176;2022-11-20T15:46:04;2.40;99.90
7030;DHT22;3556;53.500;10.176;2022-11-20T15:48:54;2.40;99.90
7030;DHT22;3556;53.500;10.176;2022-11-20T15:53:55;2.40;99.90
7030;DHT22;3556;53.500;10.176;2022-11-20T15:56:21;2.40;99.90
7030;DHT22;3556;53.500;10.176;2022-11-20T15:58:47;2.30;99.90
7030;DHT22;3556;53.500;10.176;2022-11-20T16:01:17;2.40;99.90
7030;DHT22;3556;53.500;10.176;2022-11-20T16:03:43;2.30;99.90
7030;DHT22;3556;53.500;10.176;2022-11-20T16:06:09;2.30;99.90
7030;DHT22;3556;53.500;10.176;2022-11-20T16:08:35;2.30;99.90
7030;DHT22;3556;53.500;10.176;2022-11-20T16:11:01;2.30;99.90
7030;DHT22;3556;53.500;10.176;2022-11-20T16:13:26;2.20;99.90
7030;DHT22;3556;53.500;10.176;2022-11-20T16:16:20;2.30;99.90
7030;DHT22;3556;53.500;10.176;2022-11-20T16:18:47;2.20;99.90
7030;DHT22;3556;53.500;10.176;2022-11-20T16:21:12;2.20;99.90
7030;DHT22;3556;53.500;10.176;2022-11-20T16:23:41;2.10;99.90
7030;DHT22;3556;53.500;10.176;2022-11-20T16:26:26;2.20;99.90
7030;DHT22;3556;53.500;10.176;2022-11-20T16:28:52;2.10;99.90
7030;DHT22;3556;53.500;10.176;2022-11-20T16:31:19;2.10;99.90
7030;DHT22;3556;53.500;10.176;2022-11-20T16:33:52;2.10;99.90
7030;DHT22;3556;53.500;10.176;2022-11-20T16:36:19;2.10;99.90
7030;DHT22;3556;53.500;10.176;2022-11-20T16:38:46;2.00;99.90
7030;DHT22;3556;53.500;10.176;2022-11-20T16:41:11;2.00;99.90
7030;DHT22;3556;53.500;10.176;2022-11-20T16:43:51;2.00;99.90
7030;DHT22;3556;53.500;10.176;2022-11-20T16:46:18;1.90;99.90
7030;DHT22;3556;53.500;10.176;2022-11-20T16:48:44;1.90;99.90
7030;DHT22;3556;53.500;10.176;2022-11-20T16:51:11;1.80;99.90
7030;DHT22;3556;53.500;10.176;2022-11-20T16:53:38;1.80;99.90
7030;DHT22;3556;53.500;10.176;2022-11-20T16:56:15;1.70;99.90
7030;DHT22;3556;53.500;10.176;2022-11-20T16:58:45;1.70;99.90
7030;DHT22;3556;53.500;10.176;2022-11-20T17:01:13;1.70;99.90
7030;DHT22;3556;53.500;10.176;2022-11-20T17:03:40;1.60;99.90
7030;DHT22;3556;53.500;10.176;2022-11-20T17:06:17;1.60;99.90
7030;DHT22;3556;53.500;10.176;2022-11-20T17:08:44;1.50;99.90
7030;DHT22;3556;53.500;10.176;2022-11-20T17:11:15;1.60;99.90
7030;DHT22;3556;53.500;10.176;2022-11-20T17:13:42;1.50;99.90
7030;DHT22;3556;53.500;10.176;2022-11-20T17:16:13;1.50;99.90
7030;DHT22;3556;53.500;10.176;2022-11-20T17:18:39;1.50;99.90
7030;DHT22;3556;53.500;10.176;2022-11-20T17:21:07;1.50;99.90
7030;DHT22;3556;53.500;10.176;2022-11-20T17:23:37;1.50;99.90
7030;DHT22;3556;53.500;10.176;2022-11-20T17:26:09;1.40;99.90
7030;DHT22;3556;53.500;10.176;2022-11-20T17:28:36;1.40;99.90
7030;DHT22;3556;53.500;10.176;2022-11-20T17:31:11;1.40;99.90
7030;DHT22;3556;53.500;10.176;2022-11-20T17:33:38;1.40;99.90
7030;DHT22;3556;53.500;10.176;2022-11-20T17:36:06;1.40;99.90
7030;DHT22;3556;53.500;10.176;2022-11-20T17:38:32;1.40;99.90
7030;DHT22;3556;53.500;10.176;2022-11-20T17:41:16;1.30;99.90
7030;DHT22;3556;53.500;10.176;2022-11-20T17:43:42;1.30;99.90
7030;DHT22;3556;53.500;10.176;2022-11-20T17:46:16;1.30;99.90
7030;DHT22;3556;53.500;10.176;2022-11-20T17:48:42;1.30;99.90